Time;durP1;ratioP1;P1;durP2;ratioP2;P2;SDS_P1;SDS_P2;PMS_P1;PMS_P2;Temp;Humidity;BMP_temperature;BMP_pressure;BME280_temperature;BME280_humidity;BME280_pressure;Samples;Min_cycle;Max_cycle;Signal;HPM_P1;HPM_P2
2022/03/07 00:01:12;;;;;;;16.47;10.10;;;;;;;;;;5036146;28;20457;-77
2022/03/07 00:03:38;;;;;;;12.00;10.40;;;;;;;;;;5036120;28;20397;-77
2022/03/07 00:06:07;;;;;;;15.00;11.00;;;;;;;;;;5036071;28;20491;-77
2022/03/07 00:08:33;;;;;;;15.00;11.87;;;;;;;;;;5036109;28;20398;-77
2022/03/07 00:10:59;;;;;;;13.87;11.40;;;;;;;;;;5035929;28;20406;-77
2022/03/07 00:13:26;;;;;;;16.87;10.27;;;;;;;;;;5038443;28;20402;-78
2022/03/07 00:15:52;;;;;;;17.77;11.30;;;;;;;;;;5036669;28;20403;-77
2022/03/07 00:18:18;;;;;;;14.90;11.30;;;;;;;;;;5036074;28;20402;-77
2022/03/07 00:20:44;;;;;;;18.00;10.87;;;;;;;;;;5035679;28;20450;-77
2022/03/07 00:23:11;;;;;;;15.97;11.57;;;;;;;;;;5035714;28;20433;-77
2022/03/07 00:25:38;;;;;;;12.47;10.70;;;;;;;;;;5034665;28;20418;-77
2022/03/07 00:28:04;;;;;;;18.40;12.20;;;;;;;;;;5036316;28;20403;-77
2022/03/07 00:30:30;;;;;;;14.10;10.80;;;;;;;;;;5035916;28;20798;-77
2022/03/07 00:32:56;;;;;;;14.43;11.10;;;;;;;;;;5035876;28;20456;-77
2022/03/07 00:35:22;;;;;;;13.07;11.07;;;;;;;;;;5035787;28;20462;-78
2022/03/07 00:37:48;;;;;;;17.10;11.60;;;;;;;;;;5035539;28;20528;-78
2022/03/07 00:40:14;;;;;;;16.53;10.90;;;;;;;;;;5035518;28;20854;-77
2022/03/07 00:42:40;;;;;;;14.13;11.20;;;;;;;;;;5034270;28;20421;-78
2022/03/07 00:45:07;;;;;;;15.10;11.40;;;;;;;;;;5035437;28;20399;-77
2022/03/07 00:47:34;;;;;;;14.63;10.40;;;;;;;;;;5036956;28;20391;-78
2022/03/07 00:50:00;;;;;;;13.93;10.80;;;;;;;;;;5035916;28;20468;-76
2022/03/07 00:52:26;;;;;;;15.80;12.30;;;;;;;;;;5033767;28;20417;-77
2022/03/07 00:54:52;;;;;;;15.80;10.83;;;;;;;;;;5035130;28;20402;-77
2022/03/07 00:57:18;;;;;;;17.43;12.47;;;;;;;;;;5035090;28;20406;-77
2022/03/07 00:59:44;;;;;;;17.07;12.63;;;;;;;;;;5035367;28;20517;-77
2022/03/07 01:02:11;;;;;;;16.03;11.40;;;;;;;;;;5034010;28;20406;-78
2022/03/07 01:04:37;;;;;;;14.67;11.20;;;;;;;;;;5033842;28;20958;-77
2022/03/07 01:07:03;;;;;;;15.70;12.53;;;;;;;;;;5035396;28;20406;-77
2022/03/07 01:09:30;;;;;;;16.20;12.53;;;;;;;;;;5034882;28;20418;-77
2022/03/07 01:11:56;;;;;;;15.50;11.67;;;;;;;;;;5035210;28;20411;-77
2022/03/07 01:14:22;;;;;;;17.07;11.93;;;;;;;;;;5034675;28;20468;-77
2022/03/07 01:16:48;;;;;;;14.50;11.60;;;;;;;;;;5035175;28;20406;-77
2022/03/07 01:19:14;;;;;;;15.80;12.10;;;;;;;;;;5034755;28;20430;-77
2022/03/07 01:21:40;;;;;;;17.23;12.93;;;;;;;;;;5034659;28;20446;-77
2022/03/07 01:24:07;;;;;;;13.27;11.67;;;;;;;;;;5034576;28;20907;-77
2022/03/07 01:26:33;;;;;;;14.07;11.60;;;;;;;;;;5035495;28;20883;-76
2022/03/07 01:29:00;;;;;;;20.00;13.80;;;;;;;;;;5035460;28;20502;-75
2022/03/07 01:31:26;;;;;;;14.90;12.27;;;;;;;;;;5036206;28;20957;-77
2022/03/07 01:33:52;;;;;;;17.23;12.50;;;;;;;;;;5033489;28;20810;-77
2022/03/07 01:36:18;;;;;;;18.43;13.57;;;;;;;;;;5034744;28;20784;-77
2022/03/07 01:38:44;;;;;;;20.70;14.07;;;;;;;;;;5034618;28;20852;-78
2022/03/07 01:41:10;;;;;;;16.47;11.90;;;;;;;;;;5046565;22;20865;-74
2022/03/07 01:43:36;;;;;;;16.07;12.47;;;;;;;;;;5034037;28;20470;-73
2022/03/07 01:46:02;;;;;;;17.73;13.13;;;;;;;;;;5033689;28;21030;-74
2022/03/07 01:48:28;;;;;;;16.57;14.13;;;;;;;;;;5033723;28;20399;-74
2022/03/07 01:50:55;;;;;;;19.50;14.57;;;;;;;;;;5033657;28;20480;-74
2022/03/07 01:53:22;;;;;;;15.83;13.70;;;;;;;;;;5033637;28;20505;-74
2022/03/07 01:55:48;;;;;;;20.53;13.53;;;;;;;;;;5033850;28;20434;-74
2022/03/07 01:58:14;;;;;;;22.17;14.30;;;;;;;;;;5033926;28;20784;-74
2022/03/07 02:00:40;;;;;;;18.10;13.67;;;;;;;;;;5033762;28;20858;-74
2022/03/07 02:03:07;;;;;;;17.07;13.63;;;;;;;;;;5032838;28;20440;-74
2022/03/07 02:05:33;;;;;;;18.03;14.07;;;;;;;;;;5033444;28;20402;-74
2022/03/07 02:07:59;;;;;;;21.37;15.10;;;;;;;;;;5033328;28;20398;-74
2022/03/07 02:10:28;;;;;;;20.90;15.80;;;;;;;;;;5033343;28;20465;-75
2022/03/07 02:12:55;;;;;;;22.50;16.27;;;;;;;;;;5033350;28;20414;-74
2022/03/07 02:15:21;;;;;;;21.57;15.13;;;;;;;;;;5033245;28;20456;-74
2022/03/07 02:17:47;;;;;;;19.90;14.77;;;;;;;;;;5033236;28;20426;-74
2022/03/07 02:20:13;;;;;;;21.10;15.53;;;;;;;;;;5033139;28;20458;-74
2022/03/07 02:22:39;;;;;;;24.47;15.60;;;;;;;;;;5033354;28;20888;-74
2022/03/07 02:25:06;;;;;;;22.80;16.40;;;;;;;;;;5033222;28;20813;-74
2022/03/07 02:27:32;;;;;;;18.80;13.87;;;;;;;;;;5033456;28;20895;-74
2022/03/07 02:29:59;;;;;;;20.47;15.07;;;;;;;;;;5032983;28;20420;-73
2022/03/07 02:32:26;;;;;;;19.30;14.50;;;;;;;;;;5032967;28;20403;-73
2022/03/07 02:34:52;;;;;;;29.20;15.83;;;;;;;;;;5032937;28;20884;-73
2022/03/07 02:37:18;;;;;;;22.73;16.27;;;;;;;;;;5032896;28;20398;-74
2022/03/07 02:39:44;;;;;;;20.90;13.83;;;;;;;;;;5032709;28;20438;-74
2022/03/07 02:42:12;;;;;;;18.70;14.37;;;;;;;;;;5032888;28;20450;-74
2022/03/07 02:44:39;;;;;;;23.60;15.63;;;;;;;;;;5033173;28;20464;-74
2022/03/07 02:47:05;;;;;;;18.67;14.10;;;;;;;;;;5032901;28;20420;-74
2022/03/07 02:49:31;;;;;;;18.20;13.90;;;;;;;;;;5024995;28;20461;-74
2022/03/07 02:51:57;;;;;;;20.43;14.03;;;;;;;;;;5032569;28;20502;-75
2022/03/07 02:54:23;;;;;;;18.10;13.73;;;;;;;;;;5032718;28;20429;-74
2022/03/07 02:56:49;;;;;;;20.40;14.43;;;;;;;;;;5032850;28;20405;-74
2022/03/07 02:59:15;;;;;;;19.67;13.00;;;;;;;;;;5032714;28;20472;-75
2022/03/07 03:01:44;;;;;;;16.83;12.87;;;;;;;;;;5032632;28;21019;-75
2022/03/07 03:04:10;;;;;;;18.47;13.20;;;;;;;;;;5032639;28;20410;-74
2022/03/07 03:06:36;;;;;;;18.20;13.03;;;;;;;;;;5032921;28;20415;-74
2022/03/07 03:09:03;;;;;;;15.03;12.20;;;;;;;;;;5032451;28;20411;-74
2022/03/07 03:11:29;;;;;;;19.33;12.83;;;;;;;;;;5032743;28;20422;-74
2022/03/07 03:13:55;;;;;;;19.83;13.27;;;;;;;;;;5034811;28;20929;-74
2022/03/07 03:16:21;;;;;;;20.20;12.87;;;;;;;;;;5036977;28;20417;-74
2022/03/07 03:18:47;;;;;;;16.27;12.23;;;;;;;;;;5036703;28;20406;-75
2022/03/07 03:21:13;;;;;;;17.43;12.33;;;;;;;;;;5036701;28;20508;-74
2022/03/07 03:23:39;;;;;;;15.00;11.27;;;;;;;;;;5036635;28;20398;-74
2022/03/07 03:26:05;;;;;;;14.77;12.20;;;;;;;;;;5036807;28;20810;-75
2022/03/07 03:28:31;;;;;;;14.57;11.60;;;;;;;;;;5036555;28;20766;-74
2022/03/07 03:30:57;;;;;;;17.30;11.57;;;;;;;;;;5036742;28;21001;-74
2022/03/07 03:33:23;;;;;;;14.57;11.13;;;;;;;;;;5036474;28;20412;-74
2022/03/07 03:35:49;;;;;;;14.93;11.20;;;;;;;;;;5036636;28;20422;-74
2022/03/07 03:38:16;;;;;;;13.33;10.60;;;;;;;;;;5036330;28;20444;-75
2022/03/07 03:40:42;;;;;;;14.93;10.20;;;;;;;;;;5036262;28;20526;-74
2022/03/07 03:43:08;;;;;;;14.57;10.20;;;;;;;;;;5036156;28;20964;-74
2022/03/07 03:45:34;;;;;;;14.33;9.23;;;;;;;;;;5036436;28;20414;-74
2022/03/07 03:48:00;;;;;;;14.60;10.33;;;;;;;;;;5036121;28;20403;-74
2022/03/07 03:50:26;;;;;;;13.07;10.67;;;;;;;;;;5036036;28;20425;-75
2022/03/07 03:52:52;;;;;;;14.67;10.00;;;;;;;;;;5035857;28;20402;-74
2022/03/07 03:55:19;;;;;;;13.90;9.83;;;;;;;;;;5035905;28;20906;-74
2022/03/07 03:57:45;;;;;;;14.73;11.00;;;;;;;;;;5035891;28;20419;-74
2022/03/07 04:00:13;;;;;;;15.30;10.13;;;;;;;;;;5035679;28;20458;-74
2022/03/07 04:02:42;;;;;;;13.17;9.73;;;;;;;;;;5036082;28;20791;-74
2022/03/07 04:05:08;;;;;;;13.57;9.57;;;;;;;;;;5035947;28;20956;-74
2022/03/07 04:07:34;;;;;;;12.13;9.80;;;;;;;;;;5035865;28;20437;-75
2022/03/07 04:10:00;;;;;;;15.07;9.70;;;;;;;;;;5035568;28;20427;-74
2022/03/07 04:12:26;;;;;;;17.87;10.80;;;;;;;;;;5035811;28;20409;-75
2022/03/07 04:14:52;;;;;;;13.30;10.30;;;;;;;;;;5035681;28;20502;-75
2022/03/07 04:17:18;;;;;;;13.20;9.67;;;;;;;;;;5035519;28;20402;-74
2022/03/07 04:19:45;;;;;;;14.87;10.20;;;;;;;;;;5030050;28;20453;-74
2022/03/07 04:22:11;;;;;;;13.03;10.07;;;;;;;;;;5027548;28;20966;-74
2022/03/07 04:24:37;;;;;;;11.97;8.90;;;;;;;;;;5033837;28;20448;-75
2022/03/07 04:27:03;;;;;;;11.90;9.73;;;;;;;;;;5034694;28;20406;-75
2022/03/07 04:29:29;;;;;;;12.47;9.63;;;;;;;;;;5035304;28;20433;-74
2022/03/07 04:31:55;;;;;;;13.60;9.37;;;;;;;;;;5035405;28;20536;-74
2022/03/07 04:34:21;;;;;;;13.33;10.57;;;;;;;;;;5035560;28;20414;-74
2022/03/07 04:36:48;;;;;;;15.80;9.60;;;;;;;;;;5035477;28;20399;-76
2022/03/07 04:39:14;;;;;;;13.57;9.23;;;;;;;;;;5035183;28;20426;-76
2022/03/07 04:41:40;;;;;;;15.17;9.30;;;;;;;;;;5034871;28;20461;-76
2022/03/07 04:44:06;;;;;;;11.47;9.30;;;;;;;;;;5035058;28;20806;-76
2022/03/07 04:46:33;;;;;;;13.83;10.00;;;;;;;;;;5035082;28;20407;-76
2022/03/07 04:48:59;;;;;;;12.77;9.23;;;;;;;;;;5034940;28;20489;-73
2022/03/07 04:51:25;;;;;;;11.80;9.47;;;;;;;;;;5035041;28;20434;-76
2022/03/07 04:53:51;;;;;;;13.40;9.40;;;;;;;;;;5034681;28;20411;-74
2022/03/07 04:56:17;;;;;;;15.33;10.67;;;;;;;;;;5034752;28;20421;-74
2022/03/07 04:58:43;;;;;;;15.63;9.20;;;;;;;;;;5034676;28;20434;-74
2022/03/07 05:01:09;;;;;;;14.83;9.57;;;;;;;;;;5038639;28;20801;-76
2022/03/07 05:03:36;;;;;;;15.00;9.57;;;;;;;;;;5034889;28;20445;-75
2022/03/07 05:06:02;;;;;;;13.60;9.97;;;;;;;;;;5034798;28;20406;-74
2022/03/07 05:08:28;;;;;;;15.20;10.90;;;;;;;;;;5021754;28;20438;-74
2022/03/07 05:10:54;;;;;;;14.87;10.60;;;;;;;;;;5014683;28;20577;-74
2022/03/07 05:13:20;;;;;;;12.07;9.20;;;;;;;;;;5017549;28;20945;-73
2022/03/07 05:15:46;;;;;;;14.27;9.43;;;;;;;;;;5034462;28;20406;-74
2022/03/07 05:18:14;;;;;;;12.10;9.67;;;;;;;;;;5033811;28;20498;-75
2022/03/07 05:20:40;;;;;;;12.63;9.97;;;;;;;;;;5034810;28;20454;-75
2022/03/07 05:23:06;;;;;;;12.00;9.17;;;;;;;;;;5034884;28;20457;-75
2022/03/07 05:25:32;;;;;;;11.97;9.27;;;;;;;;;;5034461;28;20395;-74
2022/03/07 05:27:58;;;;;;;13.23;9.50;;;;;;;;;;5034442;28;20394;-75
2022/03/07 05:30:24;;;;;;;11.77;9.63;;;;;;;;;;5034355;28;20480;-74
2022/03/07 05:32:52;;;;;;;14.33;9.10;;;;;;;;;;5034426;28;20434;-75
2022/03/07 05:35:19;;;;;;;12.50;9.90;;;;;;;;;;5034426;28;20489;-74
2022/03/07 05:37:45;;;;;;;15.00;10.00;;;;;;;;;;5033323;28;20941;-74
2022/03/07 05:40:12;;;;;;;10.53;9.30;;;;;;;;;;5038626;28;20465;-74
2022/03/07 05:42:38;;;;;;;15.20;9.63;;;;;;;;;;5036618;28;20480;-74
2022/03/07 05:45:05;;;;;;;13.63;9.73;;;;;;;;;;5034448;28;20425;-76
2022/03/07 05:47:31;;;;;;;17.73;9.73;;;;;;;;;;5033975;28;20812;-73
2022/03/07 05:49:57;;;;;;;16.53;11.20;;;;;;;;;;5032539;28;20446;-73
2022/03/07 05:52:23;;;;;;;12.70;9.57;;;;;;;;;;5033807;28;20430;-76
2022/03/07 05:54:50;;;;;;;13.63;10.50;;;;;;;;;;5034085;28;20813;-74
2022/03/07 05:57:22;;;;;;;15.80;11.40;;;;;;;;;;5070314;28;20515;-75
2022/03/07 05:59:49;;;;;;;15.10;9.83;;;;;;;;;;5070142;28;20467;-75
2022/03/07 06:02:15;;;;;;;13.23;9.33;;;;;;;;;;5057486;28;20799;-75
2022/03/07 06:04:42;;;;;;;11.90;9.20;;;;;;;;;;5052458;28;20479;-76
2022/03/07 06:07:08;;;;;;;19.43;10.00;;;;;;;;;;5049743;28;20901;-75
2022/03/07 06:09:34;;;;;;;14.57;10.13;;;;;;;;;;5049933;28;20480;-75
2022/03/07 06:12:00;;;;;;;13.97;10.40;;;;;;;;;;5056908;28;20725;-75
2022/03/07 06:14:26;;;;;;;15.00;9.90;;;;;;;;;;5068547;28;20397;-74
2022/03/07 06:16:52;;;;;;;13.77;9.80;;;;;;;;;;5059358;28;20485;-75
2022/03/07 06:19:18;;;;;;;14.30;10.43;;;;;;;;;;5049893;28;20775;-74
2022/03/07 06:21:44;;;;;;;15.60;10.80;;;;;;;;;;5050019;28;20798;-74
2022/03/07 06:24:11;;;;;;;16.30;10.07;;;;;;;;;;5053700;28;20944;-75
2022/03/07 06:26:37;;;;;;;15.73;11.37;;;;;;;;;;5060330;28;20405;-75
2022/03/07 06:29:05;;;;;;;18.80;11.20;;;;;;;;;;5068306;28;20420;-75
2022/03/07 06:31:31;;;;;;;14.33;9.67;;;;;;;;;;5051788;28;20433;-75
2022/03/07 06:33:57;;;;;;;13.97;10.97;;;;;;;;;;5049436;28;20564;-74
2022/03/07 06:36:24;;;;;;;17.80;11.00;;;;;;;;;;5048388;28;20465;-74
2022/03/07 06:38:50;;;;;;;16.43;11.60;;;;;;;;;;5048463;28;20848;-74
2022/03/07 06:41:16;;;;;;;16.93;10.93;;;;;;;;;;5049953;28;20766;-75
2022/03/07 06:43:42;;;;;;;15.53;10.30;;;;;;;;;;5050003;28;20410;-74
2022/03/07 06:46:08;;;;;;;14.63;10.60;;;;;;;;;;5049242;28;20497;-74
2022/03/07 06:48:35;;;;;;;16.70;12.03;;;;;;;;;;5049662;28;20417;-75
2022/03/07 06:51:01;;;;;;;14.60;10.63;;;;;;;;;;5048170;28;20441;-74
2022/03/07 06:53:27;;;;;;;14.47;11.13;;;;;;;;;;5049853;28;20418;-75
2022/03/07 06:55:53;;;;;;;16.50;11.00;;;;;;;;;;5054910;28;20467;-74
2022/03/07 06:58:21;;;;;;;18.73;12.23;;;;;;;;;;5069148;28;20404;-74
2022/03/07 07:00:47;;;;;;;16.40;10.77;;;;;;;;;;5067065;28;20425;-74
2022/03/07 07:03:13;;;;;;;18.10;12.33;;;;;;;;;;5056260;28;20433;-75
2022/03/07 07:05:39;;;;;;;21.97;12.70;;;;;;;;;;5079988;28;20405;-75
2022/03/07 07:08:05;;;;;;;15.40;11.80;;;;;;;;;;5059116;28;20405;-74
2022/03/07 07:10:32;;;;;;;18.50;10.87;;;;;;;;;;5055431;28;20421;-74
2022/03/07 07:12:58;;;;;;;16.77;11.80;;;;;;;;;;5055517;28;20889;-74
2022/03/07 07:15:24;;;;;;;17.93;12.90;;;;;;;;;;5055555;28;20479;-74
2022/03/07 07:17:50;;;;;;;17.47;11.47;;;;;;;;;;5052569;28;20867;-74
2022/03/07 07:20:16;;;;;;;19.75;12.48;;;;;;;;;;5044050;28;20407;-74
2022/03/07 07:22:42;;;;;;;24.10;13.50;;;;;;;;;;5050582;28;20261;-75
2022/03/07 07:25:09;;;;;;;12.93;10.13;;;;;;;;;;5055089;28;20394;-75
2022/03/07 07:27:36;;;;;;;18.80;12.83;;;;;;;;;;5053555;28;20428;-74
2022/03/07 07:30:02;;;;;;;18.53;13.10;;;;;;;;;;5053059;28;20434;-74
2022/03/07 07:32:29;;;;;;;17.37;12.23;;;;;;;;;;5038625;28;20472;-75
2022/03/07 07:34:55;;;;;;;18.17;12.40;;;;;;;;;;5035474;28;20464;-74
2022/03/07 07:37:21;;;;;;;15.30;11.70;;;;;;;;;;5035692;28;20823;-75
2022/03/07 07:39:47;;;;;;;16.90;11.67;;;;;;;;;;5036129;28;20434;-76
2022/03/07 07:42:13;;;;;;;15.60;12.27;;;;;;;;;;5046248;28;20410;-76
2022/03/07 07:44:40;;;;;;;19.53;12.53;;;;;;;;;;5035410;28;20776;-74
2022/03/07 07:47:07;;;;;;;17.30;13.30;;;;;;;;;;5050610;28;20819;-76
2022/03/07 07:49:33;;;;;;;21.00;12.70;;;;;;;;;;5041608;28;20441;-75
2022/03/07 07:51:59;;;;;;;19.53;14.77;;;;;;;;;;5048836;28;20575;-76
2022/03/07 07:54:26;;;;;;;17.30;12.97;;;;;;;;;;5041393;28;20417;-76
2022/03/07 07:56:52;;;;;;;32.60;17.50;;;;;;;;;;5039658;28;20454;-76
2022/03/07 07:59:18;;;;;;;20.90;12.83;;;;;;;;;;5037925;28;20432;-73
2022/03/07 08:01:44;;;;;;;18.83;13.07;;;;;;;;;;5041172;28;20445;-73
2022/03/07 08:04:12;;;;;;;17.13;13.00;;;;;;;;;;5044251;28;20426;-73
2022/03/07 08:06:38;;;;;;;16.40;11.93;;;;;;;;;;5044439;28;20512;-72
2022/03/07 08:09:04;;;;;;;16.53;13.13;;;;;;;;;;5049016;28;20439;-72
2022/03/07 08:11:30;;;;;;;17.63;13.80;;;;;;;;;;5046199;28;20456;-74
2022/03/07 08:13:56;;;;;;;21.87;14.30;;;;;;;;;;5042564;28;20426;-74
2022/03/07 08:16:22;;;;;;;20.65;14.55;;;;;;;;;;5039006;28;20437;-74
2022/03/07 08:18:48;;;;;;;26.10;14.13;;;;;;;;;;5039723;28;20175;-74
2022/03/07 08:21:15;;;;;;;21.40;15.30;;;;;;;;;;5033566;28;20434;-74
2022/03/07 08:23:41;;;;;;;23.23;15.53;;;;;;;;;;5041842;28;20413;-73
2022/03/07 08:26:07;;;;;;;18.23;15.27;;;;;;;;;;5042018;28;20418;-74
2022/03/07 08:28:33;;;;;;;19.80;14.77;;;;;;;;;;5038748;28;20773;-74
2022/03/07 08:30:59;;;;;;;22.17;14.67;;;;;;;;;;5045993;28;20850;-74
2022/03/07 08:33:32;;;;;;;21.07;14.30;;;;;;;;;;5045963;28;20828;-75
2022/03/07 08:35:58;;;;;;;20.87;14.30;;;;;;;;;;5038679;28;20503;-74
2022/03/07 08:38:24;;;;;;;18.10;14.03;;;;;;;;;;5046013;28;20424;-73
2022/03/07 08:40:50;;;;;;;18.43;14.73;;;;;;;;;;5048538;28;20430;-73
2022/03/07 08:43:16;;;;;;;17.93;14.03;;;;;;;;;;5035775;28;20475;-74
2022/03/07 08:45:43;;;;;;;20.43;14.43;;;;;;;;;;5038823;28;20418;-74
2022/03/07 08:48:09;;;;;;;19.87;14.23;;;;;;;;;;5042064;28;20422;-73
2022/03/07 08:50:35;;;;;;;22.70;15.63;;;;;;;;;;5033814;28;20982;-74
2022/03/07 08:53:01;;;;;;;22.30;15.67;;;;;;;;;;5036813;28;20429;-74
2022/03/07 08:55:27;;;;;;;19.17;14.60;;;;;;;;;;5044215;28;20465;-73
2022/03/07 08:57:53;;;;;;;20.30;14.73;;;;;;;;;;5041981;28;20414;-74
2022/03/07 09:00:19;;;;;;;19.17;14.70;;;;;;;;;;5043197;28;20437;-74
2022/03/07 09:02:45;;;;;;;20.77;15.50;;;;;;;;;;5039003;28;20424;-73
2022/03/07 09:05:11;;;;;;;19.63;16.50;;;;;;;;;;5039568;28;20426;-74
2022/03/07 09:07:37;;;;;;;19.93;14.47;;;;;;;;;;5046720;28;20417;-76
2022/03/07 09:10:04;;;;;;;17.63;14.90;;;;;;;;;;5044972;28;20437;-75
2022/03/07 09:12:30;;;;;;;20.87;14.53;;;;;;;;;;5036902;28;20425;-74
2022/03/07 09:15:00;;;;;;;18.97;15.30;;;;;;;;;;5036122;28;20418;-74
2022/03/07 09:17:26;;;;;;;22.83;15.83;;;;;;;;;;5039333;28;20517;-74
2022/03/07 09:19:55;;;;;;;21.03;15.93;;;;;;;;;;5038575;28;20437;-74
2022/03/07 09:22:22;;;;;;;20.30;15.70;;;;;;;;;;5053096;28;20898;-74
2022/03/07 09:24:48;;;;;;;19.60;15.90;;;;;;;;;;5037103;28;20931;-74
2022/03/07 09:27:14;;;;;;;17.10;14.00;;;;;;;;;;5039062;28;20508;-74
2022/03/07 09:29:40;;;;;;;21.63;15.27;;;;;;;;;;5043191;28;20449;-73
2022/03/07 09:32:06;;;;;;;22.10;15.93;;;;;;;;;;5045696;28;20417;-74
2022/03/07 09:34:35;;;;;;;21.83;15.57;;;;;;;;;;5043100;28;20450;-75
2022/03/07 09:37:04;;;;;;;19.23;14.97;;;;;;;;;;5035377;28;20454;-75
2022/03/07 09:39:30;;;;;;;19.87;15.70;;;;;;;;;;5041889;28;20449;-73
2022/03/07 09:41:56;;;;;;;20.33;15.67;;;;;;;;;;5040997;28;20845;-74
2022/03/07 09:44:23;;;;;;;21.77;16.00;;;;;;;;;;5044531;28;20644;-75
2022/03/07 09:46:50;;;;;;;21.90;15.73;;;;;;;;;;5036721;28;20422;-74
2022/03/07 09:49:16;;;;;;;22.60;15.23;;;;;;;;;;5036650;28;20452;-74
2022/03/07 09:51:42;;;;;;;24.37;16.30;;;;;;;;;;5037490;28;20445;-74
2022/03/07 09:54:08;;;;;;;22.00;17.00;;;;;;;;;;5035262;28;20418;-75
2022/03/07 09:56:34;;;;;;;22.90;16.20;;;;;;;;;;5034483;28;20605;-75
2022/03/07 09:59:00;;;;;;;21.10;14.87;;;;;;;;;;5048572;28;20413;-75
2022/03/07 10:01:26;;;;;;;21.27;16.50;;;;;;;;;;5037438;28;20449;-74
2022/03/07 10:04:04;;;;;;;22.53;14.20;;;;;;;;;;5040800;28;20449;-74
2022/03/07 10:06:31;;;;;;;21.07;14.90;;;;;;;;;;5035711;28;20469;-75
2022/03/07 10:08:58;;;;;;;22.30;15.50;;;;;;;;;;5036842;28;20425;-74
2022/03/07 10:11:25;;;;;;;22.87;15.60;;;;;;;;;;5038544;28;20448;-75
2022/03/07 10:13:54;;;;;;;24.40;17.00;;;;;;;;;;5041872;28;20428;-75
2022/03/07 10:16:21;;;;;;;20.35;16.25;;;;;;;;;;5033890;28;20323;-76
2022/03/07 10:18:54;;;;;;;21.80;15.30;;;;;;;;;;5036828;28;20266;-73
2022/03/07 10:21:27;;;;;;;20.73;15.47;;;;;;;;;;5045580;28;20448;-76
2022/03/07 10:23:54;;;;;;;21.47;16.30;;;;;;;;;;5040846;28;20421;-77
2022/03/07 10:26:21;;;;;;;18.43;15.30;;;;;;;;;;5034512;28;20426;-77
2022/03/07 10:28:54;;;;;;;24.47;17.33;;;;;;;;;;5033683;28;20426;-75
2022/03/07 10:31:21;;;;;;;22.00;16.60;;;;;;;;;;5040828;28;20437;-74
2022/03/07 10:33:47;;;;;;;23.47;17.60;;;;;;;;;;5039284;28;20409;-74
2022/03/07 10:36:14;;;;;;;23.53;15.77;;;;;;;;;;5035300;28;20511;-75
2022/03/07 10:38:40;;;;;;;29.10;17.52;;;;;;;;;;5044702;28;20420;-76
2022/03/07 10:41:06;;;;;;;26.40;17.90;;;;;;;;;;5034761;28;20191;-75
2022/03/07 10:43:32;;;;;;;21.97;16.90;;;;;;;;;;5040169;28;20453;-74
2022/03/07 10:46:00;;;;;;;23.83;18.25;;;;;;;;;;5040895;28;20422;-75
2022/03/07 10:48:28;;;;;;;23.63;16.80;;;;;;;;;;5041429;28;20209;-75
2022/03/07 10:50:55;;;;;;;28.40;19.17;;;;;;;;;;5048435;28;20454;-75
2022/03/07 10:53:22;;;;;;;23.53;17.50;;;;;;;;;;5036514;28;20194;-74
2022/03/07 10:55:58;;;;;;;26.27;18.90;;;;;;;;;;5044109;28;20550;-74
2022/03/07 10:58:25;;;;;;;25.00;17.30;;;;;;;;;;5041243;28;20429;-74
2022/03/07 11:00:52;;;;;;;22.80;16.10;;;;;;;;;;5040587;28;20553;-75
2022/03/07 11:03:20;;;;;;;23.63;18.25;;;;;;;;;;5043844;28;20508;-74
2022/03/07 11:05:46;;;;;;;23.58;19.20;;;;;;;;;;5040422;28;20512;-74
2022/03/07 11:08:15;;;;;;;29.10;19.43;;;;;;;;;;5038567;28;20656;-75
2022/03/07 11:10:44;;;;;;;23.80;18.15;;;;;;;;;;5036889;28;20850;-76
2022/03/07 11:13:11;;;;;;;23.03;16.27;;;;;;;;;;5037520;28;20187;-76
2022/03/07 11:15:37;;;;;;;28.97;19.07;;;;;;;;;;5040967;28;20457;-76
2022/03/07 11:18:04;;;;;;;22.53;16.90;;;;;;;;;;5038329;28;20426;-76
2022/03/07 11:20:30;;;;;;;22.60;16.50;;;;;;;;;;5038940;28;20450;-76
2022/03/07 11:22:56;;;;;;;27.40;15.60;;;;;;;;;;5038796;28;20478;-76
2022/03/07 11:25:23;;;;;;;23.25;17.73;;;;;;;;;;5038116;28;20529;-75
2022/03/07 11:27:49;;;;;;;21.70;16.97;;;;;;;;;;5045322;28;20590;-75
2022/03/07 11:30:24;;;;;;;21.27;15.73;;;;;;;;;;5042058;28;20453;-75
2022/03/07 11:32:51;;;;;;;22.43;16.67;;;;;;;;;;5035853;28;20459;-76
2022/03/07 11:35:17;;;;;;;21.60;15.80;;;;;;;;;;5034733;28;20441;-76
2022/03/07 11:37:43;;;;;;;21.67;17.40;;;;;;;;;;5045743;28;20438;-75
2022/03/07 11:40:23;;;;;;;24.17;17.90;;;;;;;;;;5036022;28;20442;-77
2022/03/07 11:42:50;;;;;;;24.97;17.70;;;;;;;;;;5045814;28;20425;-77
2022/03/07 11:45:18;;;;;;;24.10;16.75;;;;;;;;;;5039683;28;20327;-76
2022/03/07 11:47:45;;;;;;;22.20;16.70;;;;;;;;;;5040807;28;20190;-74
2022/03/07 11:50:12;;;;;;;29.77;17.60;;;;;;;;;;5040393;28;21007;-75
2022/03/07 11:52:38;;;;;;;26.57;18.90;;;;;;;;;;5040686;28;20563;-75
2022/03/07 11:55:08;;;;;;;24.80;18.33;;;;;;;;;;5036743;28;20433;-75
2022/03/07 11:57:44;;;;;;;19.33;15.40;;;;;;;;;;5034373;28;20945;-76
2022/03/07 12:00:16;;;;;;;22.20;16.80;;;;;;;;;;5041263;28;20916;-75
2022/03/07 12:02:43;;;;;;;24.37;17.63;;;;;;;;;;5048889;28;20410;-74
2022/03/07 12:05:29;;;;;;;29.03;18.17;;;;;;;;;;5040613;28;20464;-75
2022/03/07 12:08:10;;;;;;;22.13;16.20;;;;;;;;;;5044164;28;20418;-75
2022/03/07 12:10:38;;;;;;;22.67;16.00;;;;;;;;;;5039826;28;20449;-75
2022/03/07 12:13:08;;;;;;;26.87;17.03;;;;;;;;;;5043344;28;20514;-74
2022/03/07 12:15:47;;;;;;;24.53;17.13;;;;;;;;;;5044640;28;20457;-75
2022/03/07 12:18:14;;;;;;;23.33;16.10;;;;;;;;;;5035935;28;20922;-76
2022/03/07 12:20:50;;;;;;;24.27;16.43;;;;;;;;;;5034762;28;20538;-75
2022/03/07 12:23:17;;;;;;;22.20;17.40;;;;;;;;;;5034906;28;20460;-76
2022/03/07 12:25:44;;;;;;;22.10;16.10;;;;;;;;;;5033675;28;20422;-76
2022/03/07 12:28:10;;;;;;;25.10;17.60;;;;;;;;;;5038940;28;20874;-75
2022/03/07 12:30:36;;;;;;;24.27;17.43;;;;;;;;;;5034207;28;20532;-76
2022/03/07 12:33:06;;;;;;;23.60;16.40;;;;;;;;;;5034126;28;20883;-75
2022/03/07 12:35:32;;;;;;;21.67;17.27;;;;;;;;;;5044966;28;20536;-75
2022/03/07 12:37:58;;;;;;;23.43;16.50;;;;;;;;;;5038783;28;20422;-75
2022/03/07 12:40:25;;;;;;;18.93;14.60;;;;;;;;;;5033966;28;20454;-74
2022/03/07 12:42:51;;;;;;;25.63;18.57;;;;;;;;;;5041664;28;20781;-75
2022/03/07 12:45:17;;;;;;;25.20;18.27;;;;;;;;;;5041353;28;20912;-75
2022/03/07 12:47:44;;;;;;;24.50;18.97;;;;;;;;;;5050821;28;20421;-75
2022/03/07 12:50:11;;;;;;;24.17;17.57;;;;;;;;;;5042892;28;20426;-75
2022/03/07 12:52:38;;;;;;;22.47;16.97;;;;;;;;;;5034551;28;20417;-75
2022/03/07 12:55:09;;;;;;;27.83;17.27;;;;;;;;;;5038503;28;20478;-75
2022/03/07 12:57:35;;;;;;;24.70;17.80;;;;;;;;;;5035894;28;20445;-76
2022/03/07 13:00:06;;;;;;;21.63;15.90;;;;;;;;;;5036386;28;20881;-75
2022/03/07 13:02:33;;;;;;;24.00;18.20;;;;;;;;;;5036581;28;20738;-75
2022/03/07 13:04:59;;;;;;;26.50;19.10;;;;;;;;;;5044221;28;20773;-75
2022/03/07 13:07:25;;;;;;;23.67;17.53;;;;;;;;;;5037511;28;20430;-73
2022/03/07 13:09:52;;;;;;;24.17;17.17;;;;;;;;;;5045807;28;20437;-73
2022/03/07 13:12:18;;;;;;;24.23;18.50;;;;;;;;;;5040522;28;20418;-74
2022/03/07 13:14:44;;;;;;;23.20;16.80;;;;;;;;;;5043280;28;20433;-76
2022/03/07 13:17:12;;;;;;;21.57;17.20;;;;;;;;;;5038000;28;21057;-73
2022/03/07 13:19:43;;;;;;;22.58;17.65;;;;;;;;;;5040868;28;20433;-74
2022/03/07 13:22:09;;;;;;;27.50;16.87;;;;;;;;;;5036567;28;20164;-75
2022/03/07 13:24:35;;;;;;;24.60;17.57;;;;;;;;;;5035413;28;20418;-74
2022/03/07 13:27:02;;;;;;;24.63;17.23;;;;;;;;;;5041282;28;20449;-74
2022/03/07 13:29:29;;;;;;;20.63;16.47;;;;;;;;;;5043602;28;20560;-74
2022/03/07 13:31:59;;;;;;;24.67;17.60;;;;;;;;;;5041294;28;20426;-74
2022/03/07 13:34:26;;;;;;;25.20;17.53;;;;;;;;;;5036365;28;20457;-75
2022/03/07 13:36:54;;;;;;;24.53;17.57;;;;;;;;;;5037806;28;20453;-74
2022/03/07 13:39:25;;;;;;;20.40;17.40;;;;;;;;;;5048227;28;20529;-75
2022/03/07 13:42:10;;;;;;;22.00;16.57;;;;;;;;;;5034016;28;20403;-73
2022/03/07 13:44:48;;;;;;;22.83;16.87;;;;;;;;;;5034304;28;20461;-76
2022/03/07 13:47:14;;;;;;;22.27;16.97;;;;;;;;;;5033406;28;20418;-74
2022/03/07 13:49:40;;;;;;;22.83;17.10;;;;;;;;;;5041514;28;20502;-74
2022/03/07 13:52:23;;;;;;;20.23;15.33;;;;;;;;;;5049902;28;20425;-74
2022/03/07 13:54:51;;;;;;;25.57;16.03;;;;;;;;;;5045981;28;20425;-74
2022/03/07 13:57:19;;;;;;;24.47;16.50;;;;;;;;;;5041017;28;20544;-74
2022/03/07 13:59:54;;;;;;;22.93;17.20;;;;;;;;;;5039778;28;20448;-74
2022/03/07 14:02:20;;;;;;;22.93;16.50;;;;;;;;;;5041739;28;20417;-74
2022/03/07 14:04:52;;;;;;;20.37;17.30;;;;;;;;;;5042968;28;20421;-76
2022/03/07 14:07:22;;;;;;;22.33;16.07;;;;;;;;;;5039725;28;20429;-75
2022/03/07 14:09:56;;;;;;;22.87;17.60;;;;;;;;;;5037515;28;20441;-75
2022/03/07 14:12:29;;;;;;;23.90;16.63;;;;;;;;;;5037180;28;20429;-74
2022/03/07 14:15:21;;;;;;;21.37;16.00;;;;;;;;;;5042039;28;20913;-75
2022/03/07 14:17:47;;;;;;;21.77;16.63;;;;;;;;;;5049072;28;20452;-74